sensor_id;sensor_type;location;lat;lon;timestamp;temperature;humidity
16040;DHT22;8124;48.634;8.120;2022-09-01T00:05:06;19.40;99.90
16040;DHT22;8124;48.634;8.120;2022-09-01T00:10:09;19.40;99.90
16040;DHT22;8124;48.634;8.120;2022-09-01T00:15:14;19.50;99.90
16040;DHT22;8124;48.634;8.120;2022-09-01T00:20:18;19.20;99.90
16040;DHT22;8124;48.634;8.120;2022-09-01T00:25:22;19.00;99.90
16040;DHT22;8124;48.634;8.120;2022-09-01T00:30:27;19.00;99.90
16040;DHT22;8124;48.634;8.120;2022-09-01T00:35:30;19.10;99.90
16040;DHT22;8124;48.634;8.120;2022-09-01T00:40:38;19.00;99.90
16040;DHT22;8124;48.634;8.120;2022-09-01T00:45:42;19.00;99.90
16040;DHT22;8124;48.634;8.120;2022-09-01T00:50:45;19.00;99.90
16040;DHT22;8124;48.634;8.120;2022-09-01T00:55:51;19.00;99.90
16040;DHT22;8124;48.634;8.120;2022-09-01T01:00:56;19.10;99.90
16040;DHT22;8124;48.634;8.120;2022-09-01T01:06:02;18.90;99.90
16040;DHT22;8124;48.634;8.120;2022-09-01T01:11:11;18.90;99.90
16040;DHT22;8124;48.634;8.120;2022-09-01T01:16:20;18.60;99.90
16040;DHT22;8124;48.634;8.120;2022-09-01T01:21:30;18.80;99.90
16040;DHT22;8124;48.634;8.120;2022-09-01T01:26:55;18.60;99.90
16040;DHT22;8124;48.634;8.120;2022-09-01T01:32:02;18.70;99.90
16040;DHT22;8124;48.634;8.120;2022-09-01T01:37:10;18.70;99.90
16040;DHT22;8124;48.634;8.120;2022-09-01T01:42:16;18.60;99.90
16040;DHT22;8124;48.634;8.120;2022-09-01T01:47:19;18.50;99.90
16040;DHT22;8124;48.634;8.120;2022-09-01T01:52:22;18.50;99.90
16040;DHT22;8124;48.634;8.120;2022-09-01T01:57:33;18.40;99.90
16040;DHT22;8124;48.634;8.120;2022-09-01T02:02:37;18.50;99.90
16040;DHT22;8124;48.634;8.120;2022-09-01T02:07:40;18.40;99.90
16040;DHT22;8124;48.634;8.120;2022-09-01T02:12:45;18.30;99.90
16040;DHT22;8124;48.634;8.120;2022-09-01T02:17:50;18.20;99.90
16040;DHT22;8124;48.634;8.120;2022-09-01T02:23:06;18.30;99.90
16040;DHT22;8124;48.634;8.120;2022-09-01T02:28:14;18.30;99.90
16040;DHT22;8124;48.634;8.120;2022-09-01T02:33:19;18.20;99.90
16040;DHT22;8124;48.634;8.120;2022-09-01T02:38:23;18.20;99.90
16040;DHT22;8124;48.634;8.120;2022-09-01T02:43:32;18.10;99.90
16040;DHT22;8124;48.634;8.120;2022-09-01T02:48:40;18.10;99.90
16040;DHT22;8124;48.634;8.120;2022-09-01T02:53:47;18.10;99.90
16040;DHT22;8124;48.634;8.120;2022-09-01T02:58:54;18.20;99.90
16040;DHT22;8124;48.634;8.120;2022-09-01T03:04:01;18.10;99.90
16040;DHT22;8124;48.634;8.120;2022-09-01T03:09:09;17.60;99.90
16040;DHT22;8124;48.634;8.120;2022-09-01T03:14:13;17.80;99.90
16040;DHT22;8124;48.634;8.120;2022-09-01T03:19:17;17.80;99.90
16040;DHT22;8124;48.634;8.120;2022-09-01T03:24:20;17.90;99.90
16040;DHT22;8124;48.634;8.120;2022-09-01T03:29:26;17.90;99.90
16040;DHT22;8124;48.634;8.120;2022-09-01T03:34:29;17.80;99.90
16040;DHT22;8124;48.634;8.120;2022-09-01T03:39:35;17.90;99.90
16040;DHT22;8124;48.634;8.120;2022-09-01T03:44:39;18.00;99.90
16040;DHT22;8124;48.634;8.120;2022-09-01T03:49:48;17.90;99.90
16040;DHT22;8124;48.634;8.120;2022-09-01T03:54:51;17.70;99.90
16040;DHT22;8124;48.634;8.120;2022-09-01T03:59:56;17.60;99.90
16040;DHT22;8124;48.634;8.120;2022-09-01T04:05:06;17.60;99.90
16040;DHT22;8124;48.634;8.120;2022-09-01T04:10:10;17.00;99.90
16040;DHT22;8124;48.634;8.120;2022-09-01T04:15:16;17.00;99.90
16040;DHT22;8124;48.634;8.120;2022-09-01T04:20:20;17.20;99.90
16040;DHT22;8124;48.634;8.120;2022-09-01T04:25:24;17.20;99.90
16040;DHT22;8124;48.634;8.120;2022-09-01T04:30:29;17.20;99.90
16040;DHT22;8124;48.634;8.120;2022-09-01T04:35:36;17.40;99.90
16040;DHT22;8124;48.634;8.120;2022-09-01T04:40:40;17.40;99.90
16040;DHT22;8124;48.634;8.120;2022-09-01T04:45:46;17.30;99.90
16040;DHT22;8124;48.634;8.120;2022-09-01T04:50:52;17.20;99.90
16040;DHT22;8124;48.634;8.120;2022-09-01T04:56:02;17.20;99.90
16040;DHT22;8124;48.634;8.120;2022-09-01T05:01:15;17.20;99.90
16040;DHT22;8124;48.634;8.120;2022-09-01T05:06:19;17.20;99.90
16040;DHT22;8124;48.634;8.120;2022-09-01T05:11:27;17.20;99.90
16040;DHT22;8124;48.634;8.120;2022-09-01T05:16:40;17.00;99.90
16040;DHT22;8124;48.634;8.120;2022-09-01T05:21:44;16.70;99.90
16040;DHT22;8124;48.634;8.120;2022-09-01T05:26:48;16.60;99.90
16040;DHT22;8124;48.634;8.120;2022-09-01T05:31:53;16.70;99.90
16040;DHT22;8124;48.634;8.120;2022-09-01T05:36:58;16.90;99.90
16040;DHT22;8124;48.634;8.120;2022-09-01T05:42:01;17.10;99.90
16040;DHT22;8124;48.634;8.120;2022-09-01T05:47:12;17.30;99.90
16040;DHT22;8124;48.634;8.120;2022-09-01T05:52:23;17.30;99.90
16040;DHT22;8124;48.634;8.120;2022-09-01T05:57:27;17.30;99.90
16040;DHT22;8124;48.634;8.120;2022-09-01T06:02:37;17.40;99.90
16040;DHT22;8124;48.634;8.120;2022-09-01T06:07:43;17.30;99.90
16040;DHT22;8124;48.634;8.120;2022-09-01T06:12:46;17.40;99.90
16040;DHT22;8124;48.634;8.120;2022-09-01T06:17:56;17.30;99.90
16040;DHT22;8124;48.634;8.120;2022-09-01T06:23:00;17.40;99.90
16040;DHT22;8124;48.634;8.120;2022-09-01T06:28:04;17.50;99.90
16040;DHT22;8124;48.634;8.120;2022-09-01T06:33:11;17.60;99.90
16040;DHT22;8124;48.634;8.120;2022-09-01T06:38:20;17.60;99.90
16040;DHT22;8124;48.634;8.120;2022-09-01T06:43:23;17.60;99.90
16040;DHT22;8124;48.634;8.120;2022-09-01T06:48:30;17.60;99.90
16040;DHT22;8124;48.634;8.120;2022-09-01T06:53:37;17.60;99.90
16040;DHT22;8124;48.634;8.120;2022-09-01T06:58:54;17.80;99.90
16040;DHT22;8124;48.634;8.120;2022-09-01T07:04:00;17.90;99.90
16040;DHT22;8124;48.634;8.120;2022-09-01T07:09:23;18.00;99.90
16040;DHT22;8124;48.634;8.120;2022-09-01T07:15:04;18.30;99.90
16040;DHT22;8124;48.634;8.120;2022-09-01T07:20:29;18.40;99.90
16040;DHT22;8124;48.634;8.120;2022-09-01T07:26:05;18.60;99.90
16040;DHT22;8124;48.634;8.120;2022-09-01T07:31:17;18.70;99.90
16040;DHT22;8124;48.634;8.120;2022-09-01T07:37:20;18.80;99.90
16040;DHT22;8124;48.634;8.120;2022-09-01T07:42:44;19.00;99.90
16040;DHT22;8124;48.634;8.120;2022-09-01T07:48:27;19.20;99.90
16040;DHT22;8124;48.634;8.120;2022-09-01T07:54:08;19.30;99.90
16040;DHT22;8124;48.634;8.120;2022-09-01T07:59:15;19.30;99.90
16040;DHT22;8124;48.634;8.120;2022-09-01T08:04:27;19.40;99.90
16040;DHT22;8124;48.634;8.120;2022-09-01T08:09:35;19.70;99.90
16040;DHT22;8124;48.634;8.120;2022-09-01T08:14:52;19.60;99.90
16040;DHT22;8124;48.634;8.120;2022-09-01T08:20:16;19.60;99.90
16040;DHT22;8124;48.634;8.120;2022-09-01T08:25:36;19.70;99.90
16040;DHT22;8124;48.634;8.120;2022-09-01T08:30:40;20.00;99.90
16040;DHT22;8124;48.634;8.120;2022-09-01T08:35:53;20.50;99.90
16040;DHT22;8124;48.634;8.120;2022-09-01T08:41:05;20.40;99.90
16040;DHT22;8124;48.634;8.120;2022-09-01T08:46:42;20.40;99.90
16040;DHT22;8124;48.634;8.120;2022-09-01T08:51:49;20.60;99.90
16040;DHT22;8124;48.634;8.120;2022-09-01T08:57:02;20.60;99.90
16040;DHT22;8124;48.634;8.120;2022-09-01T09:02:41;20.70;99.90
16040;DHT22;8124;48.634;8.120;2022-09-01T09:08:19;20.80;99.90
16040;DHT22;8124;48.634;8.120;2022-09-01T09:13:59;20.90;99.90
16040;DHT22;8124;48.634;8.120;2022-09-01T09:19:14;21.00;99.90
16040;DHT22;8124;48.634;8.120;2022-09-01T09:24:25;21.20;99.90
16040;DHT22;8124;48.634;8.120;2022-09-01T09:29:46;21.30;99.90
16040;DHT22;8124;48.634;8.120;2022-09-01T09:34:50;21.20;99.90
16040;DHT22;8124;48.634;8.120;2022-09-01T09:40:07;21.40;99.90
16040;DHT22;8124;48.634;8.120;2022-09-01T09:45:22;21.60;99.90
16040;DHT22;8124;48.634;8.120;2022-09-01T09:50:29;22.10;99.90
16040;DHT22;8124;48.634;8.120;2022-09-01T09:55:52;21.90;99.90
16040;DHT22;8124;48.634;8.120;2022-09-01T10:01:08;22.00;99.90
16040;DHT22;8124;48.634;8.120;2022-09-01T10:06:33;22.40;99.90
16040;DHT22;8124;48.634;8.120;2022-09-01T10:11:39;22.70;99.90
16040;DHT22;8124;48.634;8.120;2022-09-01T10:16:51;22.40;99.90
16040;DHT22;8124;48.634;8.120;2022-09-01T10:21:56;22.60;99.90
16040;DHT22;8124;48.634;8.120;2022-09-01T10:27:01;22.90;99.90
16040;DHT22;8124;48.634;8.120;2022-09-01T10:32:27;23.10;99.90
16040;DHT22;8124;48.634;8.120;2022-09-01T10:37:50;23.20;99.90
16040;DHT22;8124;48.634;8.120;2022-09-01T10:42:55;23.40;99.90
16040;DHT22;8124;48.634;8.120;2022-09-01T10:48:28;23.40;99.90
16040;DHT22;8124;48.634;8.120;2022-09-01T10:53:53;23.30;99.90
16040;DHT22;8124;48.634;8.120;2022-09-01T10:59:03;23.30;99.90
16040;DHT22;8124;48.634;8.120;2022-09-01T11:10:34;23.30;99.90
16040;DHT22;8124;48.634;8.120;2022-09-01T11:15:42;23.60;99.90
16040;DHT22;8124;48.634;8.120;2022-09-01T11:20:46;23.80;99.90
16040;DHT22;8124;48.634;8.120;2022-09-01T11:25:52;23.80;99.90
16040;DHT22;8124;48.634;8.120;2022-09-01T11:31:24;23.80;99.90
16040;DHT22;8124;48.634;8.120;2022-09-01T11:36:30;24.20;99.90
16040;DHT22;8124;48.634;8.120;2022-09-01T11:41:49;24.20;99.90
16040;DHT22;8124;48.634;8.120;2022-09-01T11:47:02;24.10;99.90
16040;DHT22;8124;48.634;8.120;2022-09-01T11:52:05;24.00;99.90
16040;DHT22;8124;48.634;8.120;2022-09-01T11:57:29;23.90;99.90
16040;DHT22;8124;48.634;8.120;2022-09-01T12:02:35;24.10;99.90
16040;DHT22;8124;48.634;8.120;2022-09-01T12:07:40;24.20;99.90
16040;DHT22;8124;48.634;8.120;2022-09-01T12:12:46;24.10;99.90
16040;DHT22;8124;48.634;8.120;2022-09-01T12:17:50;24.10;99.90
16040;DHT22;8124;48.634;8.120;2022-09-01T12:22:54;24.10;99.90
16040;DHT22;8124;48.634;8.120;2022-09-01T12:28:00;24.40;99.90
16040;DHT22;8124;48.634;8.120;2022-09-01T12:33:05;24.60;99.90
16040;DHT22;8124;48.634;8.120;2022-09-01T12:38:28;24.60;99.90
16040;DHT22;8124;48.634;8.120;2022-09-01T12:43:36;24.60;99.90
16040;DHT22;8124;48.634;8.120;2022-09-01T12:48:40;24.50;99.90
16040;DHT22;8124;48.634;8.120;2022-09-01T12:53:50;24.50;99.90
16040;DHT22;8124;48.634;8.120;2022-09-01T12:59:04;24.50;99.90
16040;DHT22;8124;48.634;8.120;2022-09-01T13:04:28;24.60;99.90
16040;DHT22;8124;48.634;8.120;2022-09-01T13:09:33;24.50;99.90
16040;DHT22;8124;48.634;8.120;2022-09-01T13:14:38;24.60;99.90
16040;DHT22;8124;48.634;8.120;2022-09-01T13:19:41;24.60;99.90
16040;DHT22;8124;48.634;8.120;2022-09-01T13:24:44;24.60;99.90
16040;DHT22;8124;48.634;8.120;2022-09-01T13:29:49;24.90;99.90
16040;DHT22;8124;48.634;8.120;2022-09-01T13:34:52;24.90;99.90
16040;DHT22;8124;48.634;8.120;2022-09-01T13:39:55;24.80;99.90
16040;DHT22;8124;48.634;8.120;2022-09-01T13:45:00;24.80;99.90
16040;DHT22;8124;48.634;8.120;2022-09-01T13:50:03;24.80;99.90
16040;DHT22;8124;48.634;8.120;2022-09-01T13:55:12;24.90;99.90
16040;DHT22;8124;48.634;8.120;2022-09-01T14:00:19;25.20;99.90
16040;DHT22;8124;48.634;8.120;2022-09-01T14:05:24;25.50;99.90
16040;DHT22;8124;48.634;8.120;2022-09-01T14:10:29;25.50;99.90
16040;DHT22;8124;48.634;8.120;2022-09-01T14:15:35;25.80;99.90
16040;DHT22;8124;48.634;8.120;2022-09-01T14:20:38;25.60;99.90
16040;DHT22;8124;48.634;8.120;2022-09-01T14:25:46;25.70;99.90
16040;DHT22;8124;48.634;8.120;2022-09-01T14:30:51;25.60;99.90
16040;DHT22;8124;48.634;8.120;2022-09-01T14:35:52;25.80;99.30
16040;DHT22;8124;48.634;8.120;2022-09-01T14:40:56;25.80;98.70
16040;DHT22;8124;48.634;8.120;2022-09-01T14:46:05;25.70;97.90
16040;DHT22;8124;48.634;8.120;2022-09-01T14:51:18;26.00;97.80
16040;DHT22;8124;48.634;8.120;2022-09-01T14:56:24;26.00;97.20
16040;DHT22;8124;48.634;8.120;2022-09-01T15:01:28;25.90;96.80
16040;DHT22;8124;48.634;8.120;2022-09-01T15:06:35;25.70;96.00
16040;DHT22;8124;48.634;8.120;2022-09-01T15:11:39;25.70;95.60
16040;DHT22;8124;48.634;8.120;2022-09-01T15:16:46;25.60;95.00
16040;DHT22;8124;48.634;8.120;2022-09-01T15:21:49;25.60;94.80
16040;DHT22;8124;48.634;8.120;2022-09-01T15:26:52;25.70;94.50
16040;DHT22;8124;48.634;8.120;2022-09-01T15:31:56;25.70;94.30
16040;DHT22;8124;48.634;8.120;2022-09-01T15:36:59;25.80;94.50
16040;DHT22;8124;48.634;8.120;2022-09-01T15:42:03;25.70;94.00
16040;DHT22;8124;48.634;8.120;2022-09-01T15:47:09;25.30;93.10
16040;DHT22;8124;48.634;8.120;2022-09-01T15:52:12;25.30;92.80
16040;DHT22;8124;48.634;8.120;2022-09-01T15:57:15;25.40;92.80
16040;DHT22;8124;48.634;8.120;2022-09-01T16:02:20;25.50;92.60
16040;DHT22;8124;48.634;8.120;2022-09-01T16:07:27;25.60;92.40
16040;DHT22;8124;48.634;8.120;2022-09-01T16:12:31;25.60;92.00
16040;DHT22;8124;48.634;8.120;2022-09-01T16:17:49;25.70;92.00
16040;DHT22;8124;48.634;8.120;2022-09-01T16:23:07;25.90;92.00
16040;DHT22;8124;48.634;8.120;2022-09-01T16:28:22;25.70;91.80
16040;DHT22;8124;48.634;8.120;2022-09-01T16:33:33;25.50;91.30
16040;DHT22;8124;48.634;8.120;2022-09-01T16:38:42;25.40;91.10
16040;DHT22;8124;48.634;8.120;2022-09-01T16:44:00;25.50;91.00
16040;DHT22;8124;48.634;8.120;2022-09-01T16:49:15;25.40;90.80
16040;DHT22;8124;48.634;8.120;2022-09-01T16:54:28;25.70;91.00
16040;DHT22;8124;48.634;8.120;2022-09-01T16:59:46;25.80;91.50
16040;DHT22;8124;48.634;8.120;2022-09-01T17:05:04;25.60;91.40
16040;DHT22;8124;48.634;8.120;2022-09-01T17:10:15;25.40;91.00
16040;DHT22;8124;48.634;8.120;2022-09-01T17:15:30;25.40;91.10
16040;DHT22;8124;48.634;8.120;2022-09-01T17:20:45;25.30;91.00
16040;DHT22;8124;48.634;8.120;2022-09-01T17:26:03;25.30;91.30
16040;DHT22;8124;48.634;8.120;2022-09-01T17:31:10;24.70;90.80
16040;DHT22;8124;48.634;8.120;2022-09-01T17:36:25;24.80;91.20
16040;DHT22;8124;48.634;8.120;2022-09-01T17:41:35;24.90;91.90
16040;DHT22;8124;48.634;8.120;2022-09-01T17:46:50;25.10;92.20
16040;DHT22;8124;48.634;8.120;2022-09-01T17:52:03;25.10;92.30
16040;DHT22;8124;48.634;8.120;2022-09-01T17:57:19;24.90;92.20
16040;DHT22;8124;48.634;8.120;2022-09-01T18:02:58;24.30;92.50
16040;DHT22;8124;48.634;8.120;2022-09-01T18:08:27;24.60;93.60
16040;DHT22;8124;48.634;8.120;2022-09-01T18:13:44;24.50;94.10
16040;DHT22;8124;48.634;8.120;2022-09-01T18:19:02;24.30;94.50
16040;DHT22;8124;48.634;8.120;2022-09-01T18:24:15;24.30;95.60
16040;DHT22;8124;48.634;8.120;2022-09-01T18:29:21;24.40;96.50
16040;DHT22;8124;48.634;8.120;2022-09-01T18:40:20;24.10;97.90
16040;DHT22;8124;48.634;8.120;2022-09-01T18:45:48;24.00;99.90
16040;DHT22;8124;48.634;8.120;2022-09-01T18:51:21;23.90;99.90
16040;DHT22;8124;48.634;8.120;2022-09-01T18:56:59;23.90;99.90
16040;DHT22;8124;48.634;8.120;2022-09-01T19:02:32;23.90;99.90
16040;DHT22;8124;48.634;8.120;2022-09-01T19:07:49;23.80;99.90
16040;DHT22;8124;48.634;8.120;2022-09-01T19:13:08;23.80;99.90
16040;DHT22;8124;48.634;8.120;2022-09-01T19:18:22;23.60;99.90
16040;DHT22;8124;48.634;8.120;2022-09-01T19:23:35;23.60;99.90
16040;DHT22;8124;48.634;8.120;2022-09-01T19:28:46;23.50;99.90
16040;DHT22;8124;48.634;8.120;2022-09-01T19:33:52;23.40;99.90
16040;DHT22;8124;48.634;8.120;2022-09-01T19:38:59;23.40;99.90
16040;DHT22;8124;48.634;8.120;2022-09-01T19:44:07;23.40;99.90
16040;DHT22;8124;48.634;8.120;2022-09-01T19:49:22;23.40;99.90
16040;DHT22;8124;48.634;8.120;2022-09-01T19:54:37;23.20;99.90
16040;DHT22;8124;48.634;8.120;2022-09-01T19:59:51;23.20;99.90
16040;DHT22;8124;48.634;8.120;2022-09-01T20:05:03;22.80;99.90
16040;DHT22;8124;48.634;8.120;2022-09-01T20:10:16;22.90;99.90
16040;DHT22;8124;48.634;8.120;2022-09-01T20:15:30;22.90;99.90
16040;DHT22;8124;48.634;8.120;2022-09-01T20:20:40;22.90;99.90
16040;DHT22;8124;48.634;8.120;2022-09-01T20:25:48;22.90;99.90
16040;DHT22;8124;48.634;8.120;2022-09-01T20:30:59;22.30;99.90
16040;DHT22;8124;48.634;8.120;2022-09-01T20:36:08;22.50;99.90
16040;DHT22;8124;48.634;8.120;2022-09-01T20:41:17;22.40;99.90
16040;DHT22;8124;48.634;8.120;2022-09-01T20:46:29;22.50;99.90
16040;DHT22;8124;48.634;8.120;2022-09-01T20:51:39;22.20;99.90
16040;DHT22;8124;48.634;8.120;2022-09-01T20:56:46;22.20;99.90
16040;DHT22;8124;48.634;8.120;2022-09-01T21:01:56;22.20;99.90
16040;DHT22;8124;48.634;8.120;2022-09-01T21:07:07;22.20;99.90
16040;DHT22;8124;48.634;8.120;2022-09-01T21:12:20;22.10;99.90
16040;DHT22;8124;48.634;8.120;2022-09-01T21:17:34;22.00;99.90
16040;DHT22;8124;48.634;8.120;2022-09-01T21:22:39;21.50;99.90
16040;DHT22;8124;48.634;8.120;2022-09-01T21:27:44;21.30;99.90
16040;DHT22;8124;48.634;8.120;2022-09-01T21:32:53;21.70;99.90
16040;DHT22;8124;48.634;8.120;2022-09-01T21:37:57;21.80;99.90
16040;DHT22;8124;48.634;8.120;2022-09-01T21:43:03;21.80;99.90
16040;DHT22;8124;48.634;8.120;2022-09-01T21:48:11;21.80;99.90
16040;DHT22;8124;48.634;8.120;2022-09-01T21:53:14;21.80;99.90
16040;DHT22;8124;48.634;8.120;2022-09-01T21:58:17;21.60;99.90
16040;DHT22;8124;48.634;8.120;2022-09-01T22:03:22;21.50;99.90
16040;DHT22;8124;48.634;8.120;2022-09-01T22:08:26;21.50;99.90
16040;DHT22;8124;48.634;8.120;2022-09-01T22:13:29;21.50;99.90
16040;DHT22;8124;48.634;8.120;2022-09-01T22:18:33;21.40;99.90
16040;DHT22;8124;48.634;8.120;2022-09-01T22:23:37;21.10;99.90
16040;DHT22;8124;48.634;8.120;2022-09-01T22:28:40;21.30;99.90
16040;DHT22;8124;48.634;8.120;2022-09-01T22:33:45;21.40;99.90
16040;DHT22;8124;48.634;8.120;2022-09-01T22:38:48;21.30;99.90
16040;DHT22;8124;48.634;8.120;2022-09-01T22:43:52;21.30;99.90
16040;DHT22;8124;48.634;8.120;2022-09-01T22:48:58;21.10;99.90
16040;DHT22;8124;48.634;8.120;2022-09-01T22:54:01;21.20;99.90
16040;DHT22;8124;48.634;8.120;2022-09-01T22:59:07;21.20;99.90
16040;DHT22;8124;48.634;8.120;2022-09-01T23:04:13;21.20;99.90
16040;DHT22;8124;48.634;8.120;2022-09-01T23:09:17;21.20;99.90
16040;DHT22;8124;48.634;8.120;2022-09-01T23:14:20;20.70;99.90
16040;DHT22;8124;48.634;8.120;2022-09-01T23:19:25;20.90;99.90
16040;DHT22;8124;48.634;8.120;2022-09-01T23:24:28;20.60;99.90
16040;DHT22;8124;48.634;8.120;2022-09-01T23:29:31;20.80;99.90
16040;DHT22;8124;48.634;8.120;2022-09-01T23:34:35;20.80;99.90
16040;DHT22;8124;48.634;8.120;2022-09-01T23:39:42;20.80;99.90
16040;DHT22;8124;48.634;8.120;2022-09-01T23:44:45;20.60;99.90
16040;DHT22;8124;48.634;8.120;2022-09-01T23:49:50;20.60;99.90
16040;DHT22;8124;48.634;8.120;2022-09-01T23:54:53;20.60;99.90
16040;DHT22;8124;48.634;8.120;2022-09-01T23:59:56;20.50;99.90
